createdAt,value
2022-08-05T00:03:44.312Z,28.17
2022-08-05T00:06:35.776Z,28.11
2022-08-05T00:12:04.564Z,28.16
2022-08-05T00:17:41.235Z,27.89
2022-08-05T00:23:12.823Z,27.88
2022-08-05T00:28:49.387Z,27.98
2022-08-05T00:31:53.609Z,27.95
2022-08-05T00:34:54.615Z,27.98
2022-08-05T00:40:09.503Z,27.91
2022-08-05T00:45:43.719Z,27.84
2022-08-05T00:48:31.414Z,27.80
2022-08-05T00:54:07.766Z,27.93
2022-08-05T00:59:44.653Z,27.77
2022-08-05T01:02:36.321Z,27.58
2022-08-05T01:08:41.180Z,26.88
2022-08-05T01:13:59.905Z,26.75
2022-08-05T01:20:01.338Z,26.65
2022-08-05T01:22:39.533Z,26.64
2022-08-05T01:28:35.537Z,26.55
2022-08-05T01:31:27.923Z,26.58
2022-08-05T01:37:07.355Z,26.32
2022-08-05T01:45:34.926Z,26.37
2022-08-05T01:51:11.971Z,26.36
2022-08-05T01:53:58.857Z,26.35
2022-08-05T01:58:11.774Z,26.03
2022-08-05T01:59:41.830Z,25.85
2022-08-05T02:02:33.925Z,25.72
2022-08-05T02:05:28.635Z,25.62
2022-08-05T02:08:30.731Z,25.52
2022-08-05T02:11:11.623Z,25.49
2022-08-05T02:14:02.345Z,25.43
2022-08-05T02:22:40.434Z,25.30
2022-08-05T02:28:21.502Z,25.16
2022-08-05T02:36:50.379Z,25.07
2022-08-05T02:39:41.180Z,24.89
2022-08-05T02:48:14.609Z,24.92
2022-08-05T02:53:54.841Z,25.00
2022-08-05T02:56:43.979Z,24.75
2022-08-05T02:59:48.124Z,24.82
2022-08-05T03:06:56.095Z,24.64
2022-08-05T03:11:56.273Z,24.60
2022-08-05T03:16:40.164Z,24.63
2022-08-05T03:19:34.470Z,24.69
2022-08-05T03:25:31.853Z,24.70
2022-08-05T03:28:02.111Z,24.75
2022-08-05T03:30:52.773Z,24.75
2022-08-05T03:36:28.050Z,24.60
2022-08-05T03:41:56.645Z,24.65
2022-08-05T03:47:35.568Z,24.80
2022-08-05T03:55:53.788Z,24.72
2022-08-05T03:58:43.730Z,24.37
2022-08-05T04:01:34.572Z,24.35
2022-08-05T04:07:12.037Z,24.03
2022-08-05T04:15:36.692Z,24.03
2022-08-05T04:18:25.714Z,23.85
2022-08-05T04:24:05.977Z,23.90
2022-08-05T04:29:36.939Z,23.83
2022-08-05T04:32:31.005Z,23.82
2022-08-05T04:35:20.072Z,23.81
2022-08-05T04:40:57.166Z,23.77
2022-08-05T04:46:35.887Z,23.89
2022-08-05T04:52:14.843Z,24.02
2022-08-05T04:57:54.191Z,24.21
2022-08-05T05:00:41.876Z,24.23
2022-08-05T05:06:40.468Z,24.28
2022-08-05T05:11:55.523Z,24.37
2022-08-05T05:17:55.787Z,24.70
2022-08-05T05:20:20.307Z,24.61
2022-08-05T05:25:59.448Z,24.80
2022-08-05T05:28:49.188Z,24.93
2022-08-05T05:34:24.263Z,26.65
2022-08-05T05:37:15.676Z,27.42
2022-08-05T05:40:04.407Z,27.60
2022-08-05T05:45:48.289Z,27.89
2022-08-05T05:51:21.991Z,27.44
2022-08-05T05:54:11.653Z,27.29
2022-08-05T05:59:48.811Z,28.02
2022-08-05T06:05:55.768Z,28.23
2022-08-05T06:11:35.461Z,27.81
2022-08-05T06:17:24.453Z,28.16
2022-08-05T06:20:02.254Z,28.22
2022-08-05T06:26:12.890Z,29.00
2022-08-05T06:31:22.590Z,28.92
2022-08-05T06:34:12.108Z,28.45
2022-08-05T06:37:02.543Z,28.06
2022-08-05T06:39:51.392Z,27.72
2022-08-05T06:42:40.643Z,27.59
2022-08-05T06:48:53.142Z,27.04
2022-08-05T06:53:57.491Z,26.45
2022-08-05T06:59:38.847Z,26.79
2022-08-05T07:05:15.321Z,28.35
2022-08-05T07:08:02.414Z,29.39
2022-08-05T07:13:58.116Z,30.23
2022-08-05T07:20:10.656Z,29.19
2022-08-05T07:24:55.162Z,28.56
2022-08-05T07:30:32.004Z,28.29
2022-08-05T07:36:21.139Z,28.22
2022-08-05T07:42:14.782Z,28.74
2022-08-05T07:47:20.629Z,28.55
2022-08-05T07:53:13.931Z,28.51
2022-08-05T07:58:57.503Z,28.62
2022-08-05T08:04:22.973Z,28.23
2022-08-05T08:07:09.957Z,28.44
2022-08-05T08:12:49.198Z,30.28
2022-08-05T08:18:24.586Z,29.75
2022-08-05T08:24:04.907Z,28.62
2022-08-05T08:30:05.481Z,28.56
2022-08-05T08:32:28.094Z,28.61
2022-08-05T08:37:45.083Z,29.73
2022-08-05T08:45:18.162Z,30.35
2022-08-05T08:50:23.069Z,30.19
2022-08-05T08:54:44.857Z,30.49
2022-08-05T09:06:08.637Z,30.69
2022-08-05T09:08:45.787Z,30.56
2022-08-05T09:11:53.370Z,30.83
2022-08-05T09:17:40.231Z,31.27
2022-08-05T09:20:09.071Z,31.42
2022-08-05T09:26:09.244Z,30.75
2022-08-05T09:32:40.148Z,31.25
2022-08-05T09:38:16.163Z,31.16
2022-08-05T09:40:37.764Z,31.00
2022-08-05T09:43:41.255Z,30.95
2022-08-05T09:46:30.799Z,30.91
2022-08-05T09:49:40.311Z,30.89
2022-08-05T09:52:29.034Z,30.87
2022-08-05T09:55:56.749Z,31.20
2022-08-05T10:00:58.046Z,31.49
2022-08-05T10:04:00.140Z,31.56
2022-08-05T10:06:59.469Z,31.68
2022-08-05T10:12:49.289Z,31.77
2022-08-05T10:15:34.338Z,31.55
2022-08-05T10:18:24.045Z,31.48
2022-08-05T10:26:54.510Z,31.68
2022-08-05T10:32:53.046Z,31.63
2022-08-05T10:38:11.890Z,31.68
2022-08-05T10:43:53.225Z,31.28
2022-08-05T10:49:33.348Z,30.86
2022-08-05T10:52:39.008Z,30.53
2022-08-05T10:58:18.013Z,30.92
2022-08-05T11:01:11.460Z,30.84
2022-08-05T11:07:10.809Z,31.87
2022-08-05T11:12:55.304Z,32.31
2022-08-05T11:18:32.678Z,32.78
2022-08-05T11:24:30.308Z,33.05
2022-08-05T11:27:51.078Z,32.98
2022-08-05T11:33:44.219Z,33.24
2022-08-05T11:36:34.270Z,33.10
2022-08-05T11:42:02.228Z,33.31
2022-08-05T11:44:54.027Z,33.29
2022-08-05T11:47:48.828Z,33.49
2022-08-05T11:50:30.834Z,33.55
2022-08-05T11:53:20.238Z,33.59
2022-08-05T11:58:55.190Z,33.34
2022-08-05T12:08:04.395Z,34.07
2022-08-05T12:10:38.660Z,34.07
2022-08-05T12:16:04.292Z,34.37
2022-08-05T12:18:55.468Z,34.39
2022-08-05T12:21:49.108Z,34.43
2022-08-05T12:24:43.588Z,34.49
2022-08-05T12:30:22.301Z,33.96
2022-08-05T12:35:53.361Z,34.22
2022-08-05T12:41:34.377Z,34.21
2022-08-05T12:44:33.141Z,34.16
2022-08-05T12:50:16.746Z,34.38
2022-08-05T12:55:56.452Z,34.35
2022-08-05T13:02:02.597Z,34.30
2022-08-05T13:07:16.149Z,34.33
2022-08-05T13:10:02.135Z,34.41
2022-08-05T13:15:50.362Z,34.59
2022-08-05T13:18:39.857Z,34.51
2022-08-05T13:24:27.751Z,34.28
2022-08-05T13:27:11.078Z,34.43
2022-08-05T13:32:50.398Z,34.82
2022-08-05T13:41:07.618Z,34.59
2022-08-05T13:43:56.416Z,34.56
2022-08-05T13:47:02.545Z,34.67
2022-08-05T13:49:35.552Z,34.51
2022-08-05T13:52:29.470Z,34.37
2022-08-05T13:58:05.807Z,34.35
2022-08-05T14:00:59.084Z,34.35
2022-08-05T14:03:51.389Z,34.39
2022-08-05T14:06:39.823Z,34.31
2022-08-05T14:12:18.194Z,34.68
2022-08-05T14:16:05.259Z,34.50
2022-08-05T14:17:59.467Z,34.37
2022-08-05T14:20:46.822Z,34.34
2022-08-05T14:23:38.172Z,34.64
2022-08-05T14:26:36.764Z,34.65
2022-08-05T14:32:13.729Z,34.83
2022-08-05T14:37:45.623Z,34.36
2022-08-05T14:46:08.267Z,34.53
2022-08-05T14:51:43.223Z,34.65
2022-08-05T14:57:33.943Z,34.75
2022-08-05T15:00:20.002Z,34.93
2022-08-05T15:06:08.159Z,35.26
2022-08-05T15:08:59.661Z,35.27
2022-08-05T15:14:33.396Z,35.39
2022-08-05T15:17:44.443Z,35.40
2022-08-05T15:22:52.334Z,35.08
2022-08-05T15:25:53.834Z,34.71
2022-08-05T15:34:32.587Z,33.83
2022-08-05T15:41:00.282Z,34.13
2022-08-05T15:45:38.505Z,34.31
2022-08-05T15:48:15.452Z,34.34
2022-08-05T15:53:51.819Z,34.84
2022-08-05T15:59:26.730Z,35.01
2022-08-05T16:05:13.827Z,35.13
2022-08-05T16:08:04.059Z,35.13
2022-08-05T16:13:41.705Z,34.68
2022-08-05T16:19:19.197Z,34.69
2022-08-05T16:24:51.797Z,34.70
2022-08-05T16:30:23.230Z,34.57
2022-08-05T16:35:56.256Z,33.93
2022-08-05T16:42:14.277Z,33.19
2022-08-05T16:44:25.792Z,32.84
2022-08-05T16:50:02.481Z,32.53
2022-08-05T16:52:56.656Z,32.34
2022-08-05T16:58:26.883Z,32.00
2022-08-05T17:04:04.085Z,31.87
2022-08-05T17:06:53.770Z,31.75
2022-08-05T17:12:51.676Z,30.41
2022-08-05T17:17:56.712Z,28.07
2022-08-05T17:24:03.525Z,26.95
2022-08-05T17:29:11.540Z,26.00
2022-08-05T17:34:40.992Z,25.76
2022-08-05T17:40:22.415Z,25.65
2022-08-05T17:45:48.578Z,25.16
2022-08-05T17:48:43.304Z,24.91
2022-08-05T17:51:40.534Z,24.89
2022-08-05T17:54:23.587Z,25.07
2022-08-05T18:00:05.065Z,24.82
2022-08-05T18:05:35.180Z,25.24
2022-08-05T18:10:58.712Z,25.60
2022-08-05T18:13:46.923Z,25.46
2022-08-05T18:16:46.753Z,25.01
2022-08-05T18:19:26.645Z,24.54
2022-08-05T18:22:17.994Z,23.55
2022-08-05T18:25:06.745Z,23.19
2022-08-05T18:30:39.017Z,22.97
2022-08-05T18:33:27.089Z,23.11
2022-08-05T18:38:57.280Z,23.13
2022-08-05T18:44:35.181Z,23.72
2022-08-05T18:47:17.336Z,23.97
2022-08-05T18:52:51.365Z,24.63
2022-08-05T18:58:16.630Z,24.69
2022-08-05T19:03:56.691Z,24.60
2022-08-05T19:09:27.385Z,24.45
2022-08-05T19:12:17.879Z,24.42
2022-08-05T19:18:08.464Z,24.00
2022-08-05T19:20:41.322Z,23.91
2022-08-05T19:24:07.124Z,23.65
2022-08-05T19:29:11.020Z,22.19
2022-08-05T19:32:00.893Z,22.09
2022-08-05T19:34:54.736Z,22.15
2022-08-05T19:40:30.683Z,22.34
2022-08-05T19:46:16.702Z,22.31
2022-08-05T19:49:04.112Z,22.33
2022-08-05T19:54:32.648Z,22.62
2022-08-05T20:00:13.999Z,22.55
2022-08-05T20:03:05.388Z,22.69
2022-08-05T20:05:56.747Z,22.76
2022-08-05T20:11:37.750Z,22.77
2022-08-05T20:14:27.103Z,22.83
2022-08-05T20:17:16.317Z,22.99
2022-08-05T20:20:09.539Z,23.05
2022-08-05T20:25:40.556Z,23.39
2022-08-05T20:28:36.709Z,23.21
2022-08-05T20:31:42.833Z,23.28
2022-08-05T20:37:24.050Z,22.99
2022-08-05T20:40:02.809Z,22.67
2022-08-05T20:45:56.625Z,22.36
2022-08-05T20:48:36.549Z,22.42
2022-08-05T20:54:14.436Z,22.55
2022-08-05T20:57:03.579Z,22.45
2022-08-05T21:02:43.671Z,22.66
2022-08-05T21:05:48.035Z,22.66
2022-08-05T21:11:10.161Z,22.82
2022-08-05T21:17:04.893Z,22.64
2022-08-05T21:22:39.739Z,22.69
2022-08-05T21:25:33.507Z,22.71
2022-08-05T21:31:09.091Z,22.73
2022-08-05T21:33:57.712Z,22.65
2022-08-05T21:39:40.756Z,22.70
2022-08-05T21:42:40.838Z,22.51
2022-08-05T21:45:24.783Z,22.42
2022-08-05T21:50:54.835Z,22.40
2022-08-05T21:53:59.472Z,22.55
2022-08-05T21:56:51.403Z,22.26
2022-08-05T22:00:02.035Z,22.22
2022-08-05T22:05:15.300Z,22.42
2022-08-05T22:10:53.253Z,22.43
2022-08-05T22:16:41.383Z,21.99
2022-08-05T22:21:57.808Z,22.10
2022-08-05T22:25:04.269Z,21.84
2022-08-05T22:28:09.385Z,21.95
2022-08-05T22:33:55.506Z,21.96
2022-08-05T22:39:09.484Z,21.72
2022-08-05T22:44:42.422Z,21.51
2022-08-05T22:47:31.222Z,21.41
2022-08-05T22:53:09.760Z,21.10
2022-08-05T22:58:49.566Z,20.94
2022-08-05T23:02:03.963Z,20.83
2022-08-05T23:07:16.325Z,20.97
2022-08-05T23:12:56.246Z,21.07
2022-08-05T23:18:37.022Z,21.10
2022-08-05T23:24:14.658Z,21.37
2022-08-05T23:29:50.759Z,21.04
2022-08-05T23:32:45.016Z,20.97
2022-08-05T23:38:12.136Z,20.83
2022-08-05T23:41:02.449Z,20.67
2022-08-05T23:44:05.320Z,20.62
2022-08-05T23:46:42.538Z,20.61
2022-08-05T23:52:30.790Z,20.51
2022-08-05T23:55:21.713Z,20.46
